createdAt,value
2023-03-24T00:00:48.902Z,2.85
2023-03-24T00:03:17.418Z,3.30
2023-03-24T00:05:44.933Z,2.80
2023-03-24T00:08:11.456Z,3.50
2023-03-24T00:10:37.965Z,3.03
2023-03-24T00:13:04.601Z,2.83
2023-03-24T00:15:31.452Z,3.15
2023-03-24T00:17:58.407Z,2.88
2023-03-24T00:20:26.389Z,2.63
2023-03-24T00:22:58.603Z,2.72
2023-03-24T00:25:28.542Z,2.75
2023-03-24T00:27:56.433Z,2.40
2023-03-24T00:30:25.043Z,2.13
2023-03-24T00:32:52.082Z,2.30
2023-03-24T00:35:18.689Z,2.30
2023-03-24T00:37:45.808Z,1.77
2023-03-24T00:40:16.327Z,2.13
2023-03-24T00:42:47.729Z,1.75
2023-03-24T00:45:18.236Z,2.08
2023-03-24T00:47:45.018Z,2.15
2023-03-24T00:50:17.377Z,1.90
2023-03-24T00:52:48.287Z,2.00
2023-03-24T00:55:16.350Z,1.95
2023-03-24T00:57:50.151Z,2.20
2023-03-24T01:00:24.185Z,2.00
2023-03-24T01:02:56.281Z,1.90
2023-03-24T01:05:25.617Z,2.10
2023-03-24T01:07:52.247Z,2.00
2023-03-24T01:10:26.043Z,1.90
2023-03-24T01:12:55.425Z,2.20
2023-03-24T01:15:24.622Z,1.90
2023-03-24T01:17:53.107Z,2.05
2023-03-24T01:20:22.943Z,1.73
2023-03-24T01:22:50.732Z,2.13
2023-03-24T01:25:22.845Z,2.10
2023-03-24T01:27:50.683Z,2.10
2023-03-24T01:30:19.426Z,2.00
2023-03-24T01:32:46.016Z,1.85
2023-03-24T01:35:13.036Z,2.10
2023-03-24T01:37:41.197Z,2.00
2023-03-24T01:40:10.059Z,1.85
2023-03-24T01:42:38.304Z,2.10
2023-03-24T01:45:43.682Z,2.03
2023-03-24T01:48:18.514Z,1.85
2023-03-24T01:50:48.952Z,2.22
2023-03-24T01:53:15.607Z,2.00
2023-03-24T01:55:43.252Z,2.28
2023-03-24T01:58:10.283Z,2.20
2023-03-24T02:00:48.279Z,2.47
2023-03-24T02:03:47.837Z,2.20
2023-03-24T02:06:16.060Z,2.20
2023-03-24T02:09:04.306Z,2.10
2023-03-24T02:11:56.215Z,2.30
2023-03-24T02:14:23.040Z,2.08
2023-03-24T02:17:36.308Z,1.90
2023-03-24T02:20:15.038Z,1.88
2023-03-24T02:23:01.609Z,2.58
2023-03-24T02:25:47.914Z,2.45
2023-03-24T02:28:39.800Z,2.35
2023-03-24T02:31:16.237Z,2.13
2023-03-24T02:34:11.270Z,2.35
2023-03-24T02:37:02.902Z,2.42
2023-03-24T02:39:47.444Z,2.45
2023-03-24T02:42:30.059Z,2.17
2023-03-24T02:45:35.389Z,2.05
2023-03-24T02:48:11.811Z,2.67
2023-03-24T02:50:52.358Z,2.40
2023-03-24T02:54:07.723Z,2.35
2023-03-24T02:57:01.960Z,3.15
2023-03-24T03:00:00.907Z,2.55
2023-03-24T03:02:55.731Z,2.38
2023-03-24T03:05:28.422Z,2.40
2023-03-24T03:07:58.009Z,2.33
2023-03-24T03:10:29.874Z,2.42
2023-03-24T03:12:59.329Z,3.03
2023-03-24T03:15:33.848Z,3.13
2023-03-24T03:18:34.090Z,2.92
2023-03-24T03:21:05.151Z,2.55
2023-03-24T03:23:49.120Z,3.00
2023-03-24T03:26:17.402Z,2.83
2023-03-24T03:28:49.905Z,2.83
2023-03-24T03:31:21.713Z,2.85
2023-03-24T03:33:58.824Z,3.20
2023-03-24T03:36:42.316Z,2.70
2023-03-24T03:39:28.580Z,2.70
2023-03-24T03:41:57.572Z,3.00
2023-03-24T03:44:25.300Z,3.38
2023-03-24T03:46:52.603Z,2.92
2023-03-24T03:49:27.732Z,3.17
2023-03-24T03:51:55.837Z,2.83
2023-03-24T03:54:23.455Z,2.80
2023-03-24T03:56:50.421Z,3.42
2023-03-24T03:59:35.503Z,3.55
2023-03-24T04:02:42.277Z,2.90
2023-03-24T04:05:19.793Z,3.95
2023-03-24T04:08:06.312Z,4.05
2023-03-24T04:11:06.478Z,3.20
2023-03-24T04:14:06.613Z,3.72
2023-03-24T04:16:59.162Z,4.28
2023-03-24T04:19:37.190Z,4.15
2023-03-24T04:22:17.511Z,4.13
2023-03-24T04:24:56.490Z,3.92
2023-03-24T04:27:38.844Z,3.88
2023-03-24T04:30:23.603Z,4.38
2023-03-24T04:32:59.328Z,3.65
2023-03-24T04:35:33.216Z,4.55
2023-03-24T04:38:23.205Z,4.80
2023-03-24T04:40:57.600Z,4.00
2023-03-24T04:43:27.876Z,4.53
2023-03-24T04:45:57.698Z,3.83
2023-03-24T04:48:31.552Z,4.22
2023-03-24T04:51:11.103Z,3.80
2023-03-24T04:54:03.802Z,4.60
2023-03-24T04:56:46.032Z,4.20
2023-03-24T04:59:30.824Z,4.75
2023-03-24T05:01:58.073Z,4.50
2023-03-24T05:04:57.020Z,3.60
2023-03-24T05:07:32.917Z,7.60
2023-03-24T05:10:02.416Z,4.20
2023-03-24T05:12:32.130Z,4.07
2023-03-24T05:15:17.214Z,4.55
2023-03-24T05:17:46.202Z,4.80
2023-03-24T05:20:13.014Z,4.40
2023-03-24T05:22:42.674Z,4.50
2023-03-24T05:25:09.542Z,4.25
2023-03-24T05:27:36.207Z,4.15
2023-03-24T05:30:15.488Z,3.67
2023-03-24T05:32:43.001Z,4.20
2023-03-24T05:35:10.367Z,4.30
2023-03-24T05:37:36.916Z,4.40
2023-03-24T05:40:03.982Z,4.03
2023-03-24T05:42:40.463Z,4.63
2023-03-24T05:45:09.609Z,4.18
2023-03-24T05:47:36.820Z,4.55
2023-03-24T05:50:04.392Z,4.40
2023-03-24T05:52:31.936Z,4.57
2023-03-24T05:55:12.164Z,4.00
2023-03-24T05:57:39.537Z,4.00
2023-03-24T06:00:24.879Z,4.25
2023-03-24T06:02:58.321Z,3.95
2023-03-24T06:05:29.786Z,3.75
2023-03-24T06:07:58.758Z,5.13
2023-03-24T06:10:28.099Z,3.80
2023-03-24T06:12:55.802Z,3.75
2023-03-24T06:15:28.122Z,3.88
2023-03-24T06:18:01.128Z,5.68
2023-03-24T06:20:34.515Z,3.45
2023-03-24T06:23:10.496Z,3.58
2023-03-24T06:25:52.530Z,3.45
2023-03-24T06:28:26.054Z,3.42
2023-03-24T06:30:53.450Z,3.60
2023-03-24T06:33:25.931Z,3.53
2023-03-24T06:35:54.018Z,3.65
2023-03-24T06:38:20.645Z,3.67
2023-03-24T06:40:47.250Z,3.88
2023-03-24T06:43:14.502Z,3.55
2023-03-24T06:48:17.643Z,4.10
2023-03-24T06:50:44.487Z,3.83
2023-03-24T06:53:11.277Z,3.58
2023-03-24T06:55:38.565Z,3.58
2023-03-24T06:58:05.678Z,4.07
2023-03-24T07:00:32.182Z,3.55
2023-03-24T07:03:18.855Z,3.90
2023-03-24T07:06:02.552Z,3.45
2023-03-24T07:08:38.134Z,3.70
2023-03-24T07:11:08.914Z,3.70
2023-03-24T07:13:38.283Z,3.55
2023-03-24T07:16:05.421Z,3.75
2023-03-24T07:18:33.621Z,4.05
2023-03-24T07:21:04.337Z,4.95
2023-03-24T07:23:32.579Z,3.80
2023-03-24T07:26:20.670Z,3.38
2023-03-24T07:28:47.590Z,3.45
2023-03-24T07:31:37.778Z,3.60
2023-03-24T07:34:07.602Z,3.30
2023-03-24T07:36:36.404Z,3.50
2023-03-24T07:39:05.254Z,4.18
2023-03-24T07:41:34.589Z,2.75
2023-03-24T07:44:05.992Z,3.80
2023-03-24T07:46:36.635Z,3.08
2023-03-24T07:49:18.254Z,3.70
2023-03-24T07:51:50.465Z,3.60
2023-03-24T07:54:23.496Z,3.67
2023-03-24T07:56:51.632Z,3.65
2023-03-24T07:59:18.695Z,3.20
2023-03-24T08:01:55.395Z,4.88
2023-03-24T08:04:42.924Z,3.80
2023-03-24T08:07:40.291Z,4.22
2023-03-24T08:10:10.943Z,4.20
2023-03-24T08:12:37.469Z,3.83
2023-03-24T08:15:05.087Z,3.85
2023-03-24T08:17:32.359Z,3.90
2023-03-24T08:20:01.345Z,4.50
2023-03-24T08:22:29.226Z,4.57
2023-03-24T08:24:55.730Z,4.22
2023-03-24T08:27:23.533Z,4.45
2023-03-24T08:29:50.049Z,4.50
2023-03-24T08:32:16.571Z,4.30
2023-03-24T08:34:43.045Z,4.68
2023-03-24T08:37:09.659Z,4.05
2023-03-24T08:39:36.200Z,4.43
2023-03-24T08:42:02.902Z,3.78
2023-03-24T08:44:31.102Z,3.90
2023-03-24T08:47:01.023Z,4.35
2023-03-24T08:49:27.634Z,4.20
2023-03-24T08:51:54.177Z,3.92
2023-03-24T08:54:23.507Z,4.30
2023-03-24T08:56:51.135Z,4.22
2023-03-24T08:59:18.114Z,3.78
2023-03-24T09:01:45.081Z,3.75
2023-03-24T09:04:11.896Z,4.35
2023-03-24T09:06:38.513Z,4.15
2023-03-24T09:09:05.183Z,3.65
2023-03-24T09:11:31.810Z,2.88
2023-03-24T09:13:58.380Z,4.03
2023-03-24T09:16:24.978Z,3.95
2023-03-24T09:18:51.645Z,3.80
2023-03-24T09:21:18.190Z,3.72
2023-03-24T09:23:44.937Z,3.45
2023-03-24T09:26:11.705Z,3.58
2023-03-24T09:28:38.253Z,4.10
2023-03-24T09:31:06.168Z,3.63
2023-03-24T09:33:34.960Z,3.40
2023-03-24T09:36:02.784Z,3.85
2023-03-24T09:38:30.492Z,3.45
2023-03-24T09:41:01.512Z,3.00
2023-03-24T09:43:41.864Z,3.15
2023-03-24T09:46:14.598Z,3.43
2023-03-24T09:48:49.552Z,3.17
2023-03-24T09:51:23.760Z,3.33
2023-03-24T09:54:05.167Z,2.85
2023-03-24T09:56:32.781Z,2.97
2023-03-24T09:59:07.380Z,2.95
2023-03-24T10:01:36.125Z,2.50
2023-03-24T10:04:03.591Z,2.05
2023-03-24T10:06:31.994Z,2.50
2023-03-24T10:09:24.545Z,2.35
2023-03-24T10:11:50.956Z,2.70
2023-03-24T10:14:54.776Z,3.20
2023-03-24T10:17:40.157Z,2.97
2023-03-24T10:20:28.139Z,2.92
2023-03-24T10:23:07.910Z,3.00
2023-03-24T10:25:47.158Z,2.63
2023-03-24T10:28:24.071Z,3.13
2023-03-24T10:30:51.437Z,2.55
2023-03-24T10:33:18.849Z,2.35
2023-03-24T10:36:10.991Z,2.95
2023-03-24T10:38:37.737Z,3.20
2023-03-24T10:41:04.478Z,2.15
2023-03-24T10:43:32.184Z,2.63
2023-03-24T10:45:59.689Z,2.20
2023-03-24T10:48:42.811Z,2.20
2023-03-24T10:51:27.050Z,2.50
2023-03-24T10:54:22.264Z,2.20
2023-03-24T10:56:51.494Z,2.10
2023-03-24T10:59:21.760Z,1.80
2023-03-24T11:01:48.354Z,2.67
2023-03-24T11:04:17.442Z,2.20
2023-03-24T11:07:15.133Z,2.00
2023-03-24T11:09:43.562Z,1.90
2023-03-24T11:12:21.656Z,2.13
2023-03-24T11:14:48.165Z,2.00
2023-03-24T11:17:16.019Z,1.52
2023-03-24T11:19:54.355Z,1.90
2023-03-24T11:22:21.456Z,2.13
2023-03-24T11:24:52.511Z,1.73
2023-03-24T11:27:19.506Z,1.73
2023-03-24T11:29:50.167Z,1.67
2023-03-24T11:32:25.647Z,1.80
2023-03-24T11:35:18.546Z,1.70
2023-03-24T11:37:45.830Z,1.70
2023-03-24T11:40:12.300Z,1.55
2023-03-24T11:42:45.941Z,1.30
2023-03-24T11:45:38.289Z,1.73
2023-03-24T11:48:12.433Z,1.35
2023-03-24T11:50:39.491Z,1.52
2023-03-24T11:53:17.353Z,1.30
2023-03-24T11:56:05.668Z,1.40
2023-03-24T11:58:50.330Z,1.73
2023-03-24T12:01:28.661Z,1.55
2023-03-24T12:04:15.799Z,1.92
2023-03-24T12:07:07.836Z,1.50
2023-03-24T12:09:51.688Z,1.83
2023-03-24T12:12:27.671Z,1.90
2023-03-24T12:15:26.739Z,1.42
2023-03-24T12:18:18.239Z,1.33
2023-03-24T12:21:12.605Z,1.83
2023-03-24T12:23:55.043Z,1.50
2023-03-24T12:26:28.225Z,1.60
2023-03-24T12:29:17.515Z,1.40
2023-03-24T12:32:11.329Z,1.50
2023-03-24T12:35:15.517Z,1.70
2023-03-24T12:37:52.198Z,1.73
2023-03-24T12:40:46.942Z,1.20
2023-03-24T12:43:20.018Z,1.52
2023-03-24T12:45:54.541Z,1.58
2023-03-24T12:48:53.378Z,1.67
2023-03-24T12:51:31.391Z,1.60
2023-03-24T12:54:30.008Z,1.60
2023-03-24T12:57:02.278Z,1.70
2023-03-24T12:59:51.470Z,1.50
2023-03-24T13:02:31.577Z,1.50
2023-03-24T13:05:05.473Z,1.30
2023-03-24T13:07:39.054Z,1.50
2023-03-24T13:10:13.607Z,1.77
2023-03-24T13:12:52.485Z,1.48
2023-03-24T13:15:31.197Z,1.63
2023-03-24T13:18:10.062Z,1.40
2023-03-24T13:20:40.670Z,1.40
2023-03-24T13:23:22.362Z,1.48
2023-03-24T13:25:54.918Z,2.33
2023-03-24T13:28:27.970Z,1.60
2023-03-24T13:30:54.854Z,1.50
2023-03-24T13:33:28.120Z,1.20
2023-03-24T13:36:08.364Z,1.70
2023-03-24T13:38:46.116Z,1.70
2023-03-24T13:41:24.641Z,1.50
2023-03-24T13:43:58.476Z,1.30
2023-03-24T13:46:25.292Z,1.48
2023-03-24T13:48:55.389Z,1.55
2023-03-24T13:51:31.756Z,1.30
2023-03-24T13:54:03.364Z,1.58
2023-03-24T13:56:40.205Z,1.00
2023-03-24T13:59:28.364Z,1.30
2023-03-24T14:02:29.052Z,1.40
2023-03-24T14:05:03.094Z,1.35
2023-03-24T14:07:32.482Z,1.45
2023-03-24T14:10:16.248Z,1.27
2023-03-24T14:13:02.039Z,1.23
2023-03-24T14:15:33.393Z,1.30
2023-03-24T14:18:24.455Z,1.55
2023-03-24T14:20:57.471Z,1.77
2023-03-24T14:23:46.734Z,1.30
2023-03-24T14:26:16.165Z,1.45
2023-03-24T14:28:48.711Z,1.33
2023-03-24T14:31:18.493Z,1.25
2023-03-24T14:33:54.547Z,1.10
2023-03-24T14:36:27.151Z,1.58
2023-03-24T14:38:53.715Z,1.40
2023-03-24T14:41:31.170Z,1.40
2023-03-24T14:43:59.534Z,1.15
2023-03-24T14:46:47.542Z,1.88
2023-03-24T14:49:23.867Z,1.88
2023-03-24T14:52:02.210Z,1.25
2023-03-24T14:54:47.256Z,1.35
2023-03-24T14:57:26.566Z,1.48
2023-03-24T15:00:15.010Z,1.23
2023-03-24T15:02:58.487Z,1.00
2023-03-24T15:05:31.978Z,1.27
2023-03-24T15:08:23.858Z,1.58
2023-03-24T15:11:06.165Z,1.58
2023-03-24T15:13:42.526Z,1.35
2023-03-24T15:16:12.047Z,1.65
2023-03-24T15:19:02.068Z,1.75
2023-03-24T15:21:33.593Z,1.75
2023-03-24T15:24:01.581Z,1.52
2023-03-24T15:26:30.081Z,1.70
2023-03-24T15:29:07.042Z,1.67
2023-03-24T15:31:33.661Z,1.40
2023-03-24T15:34:28.300Z,1.45
2023-03-24T15:36:57.408Z,1.70
2023-03-24T15:39:27.841Z,1.38
2023-03-24T15:41:54.485Z,1.60
2023-03-24T15:44:25.601Z,1.58
2023-03-24T15:46:55.038Z,1.50
2023-03-24T15:49:31.766Z,1.80
2023-03-24T15:52:03.939Z,1.42
2023-03-24T15:54:36.629Z,1.35
2023-03-24T15:57:23.447Z,2.20
2023-03-24T16:00:11.918Z,1.80
2023-03-24T16:02:48.284Z,1.55
2023-03-24T16:05:22.116Z,1.80
2023-03-24T16:08:05.803Z,1.90
2023-03-24T16:10:42.839Z,1.80
2023-03-24T16:13:19.364Z,1.55
2023-03-24T16:16:22.099Z,1.52
2023-03-24T16:19:45.780Z,1.90
2023-03-24T16:22:24.477Z,2.08
2023-03-24T16:25:06.580Z,1.90
2023-03-24T16:27:59.409Z,1.85
2023-03-24T16:30:37.448Z,1.98
2023-03-24T16:33:34.095Z,1.77
2023-03-24T16:36:06.759Z,2.28
2023-03-24T16:39:34.892Z,2.10
2023-03-24T16:42:14.238Z,2.28
2023-03-24T16:44:52.450Z,2.15
2023-03-24T16:47:20.782Z,1.88
2023-03-24T16:49:49.077Z,1.95
2023-03-24T16:52:17.118Z,1.80
2023-03-24T16:54:57.958Z,2.03
2023-03-24T16:57:24.954Z,1.98
2023-03-24T17:05:54.085Z,1.58
2023-03-24T17:08:26.841Z,2.58
2023-03-24T17:11:00.041Z,1.88
2023-03-24T17:13:31.432Z,1.80
2023-03-24T17:16:13.311Z,2.27
2023-03-24T17:18:47.265Z,2.97
2023-03-24T17:21:16.185Z,2.42
2023-03-24T17:23:43.757Z,2.30
2023-03-24T17:26:10.292Z,2.00
2023-03-24T17:28:36.827Z,2.13
2023-03-24T17:31:03.418Z,2.25
2023-03-24T17:33:30.068Z,2.33
2023-03-24T17:35:56.610Z,2.70
2023-03-24T17:38:23.306Z,2.20
2023-03-24T17:40:58.925Z,2.00
2023-03-24T17:43:27.282Z,2.88
2023-03-24T17:46:01.400Z,2.00
2023-03-24T17:48:28.462Z,2.80
2023-03-24T17:50:56.937Z,2.88
2023-03-24T17:53:27.050Z,3.42
2023-03-24T17:55:58.586Z,5.85
2023-03-24T17:58:30.183Z,6.35
2023-03-24T18:00:58.299Z,6.18
2023-03-24T18:03:26.065Z,6.00
2023-03-24T18:05:52.806Z,3.92
2023-03-24T18:08:19.657Z,2.85
2023-03-24T18:10:46.258Z,4.10
2023-03-24T18:13:14.585Z,3.20
2023-03-24T18:15:43.667Z,4.40
2023-03-24T18:18:12.160Z,3.25
2023-03-24T18:20:39.432Z,3.92
2023-03-24T18:23:06.485Z,4.10
2023-03-24T18:25:33.313Z,3.90
2023-03-24T18:27:59.938Z,4.07
2023-03-24T18:30:26.581Z,3.80
2023-03-24T18:32:53.202Z,4.00
2023-03-24T18:35:20.422Z,4.50
2023-03-24T18:37:47.099Z,3.95
2023-03-24T18:40:14.858Z,4.25
2023-03-24T18:42:41.425Z,3.22
2023-03-24T18:45:08.555Z,3.30
2023-03-24T18:47:35.179Z,3.70
2023-03-24T18:50:01.977Z,3.83
2023-03-24T18:52:28.947Z,4.55
2023-03-24T18:54:59.445Z,4.30
2023-03-24T18:57:26.184Z,6.22
2023-03-24T18:59:53.254Z,4.15
2023-03-24T19:02:19.859Z,3.85
2023-03-24T19:04:48.184Z,4.75
2023-03-24T19:07:14.913Z,5.18
2023-03-24T19:09:42.338Z,5.57
2023-03-24T19:12:09.520Z,4.45
2023-03-24T19:14:36.579Z,4.97
2023-03-24T19:17:03.718Z,4.88
2023-03-24T19:19:31.701Z,4.60
2023-03-24T19:21:58.878Z,4.97
2023-03-24T19:24:26.368Z,4.55
2023-03-24T19:26:53.990Z,4.40
2023-03-24T19:29:21.503Z,3.88
2023-03-24T19:31:49.568Z,4.13
2023-03-24T19:34:16.192Z,3.88
2023-03-24T19:36:46.464Z,3.95
2023-03-24T19:39:15.071Z,3.92
2023-03-24T19:41:41.719Z,3.47
2023-03-24T19:44:08.304Z,4.20
2023-03-24T19:46:34.910Z,4.15
2023-03-24T19:49:01.527Z,4.57
2023-03-24T19:51:28.090Z,4.40
2023-03-24T19:53:55.339Z,4.20
2023-03-24T19:56:23.378Z,4.63
2023-03-24T19:58:50.422Z,4.57
2023-03-24T20:01:17.589Z,4.88
2023-03-24T20:03:44.298Z,3.88
2023-03-24T20:06:11.247Z,3.63
2023-03-24T20:08:38.355Z,6.25
2023-03-24T20:11:10.685Z,3.58
2023-03-24T20:13:38.748Z,3.60
2023-03-24T20:16:06.149Z,2.60
2023-03-24T20:18:34.352Z,2.47
2023-03-24T20:21:01.667Z,2.85
2023-03-24T20:23:28.488Z,1.75
2023-03-24T20:26:04.192Z,2.45
2023-03-24T20:28:30.801Z,3.25
2023-03-24T20:31:01.972Z,2.50
2023-03-24T20:35:58.885Z,2.15
2023-03-24T20:38:25.958Z,1.80
2023-03-24T20:41:00.381Z,2.28
2023-03-24T20:43:27.253Z,2.00
2023-03-24T20:45:58.157Z,2.10
2023-03-24T20:51:07.726Z,2.30
2023-03-24T20:53:35.685Z,13.27
2023-03-24T20:56:07.255Z,2.20
2023-03-24T20:58:35.065Z,1.95
2023-03-24T21:01:08.091Z,2.00
2023-03-24T21:03:35.096Z,2.35
2023-03-24T21:06:01.953Z,1.98
2023-03-24T21:08:28.924Z,2.28
2023-03-24T21:10:56.722Z,2.20
2023-03-24T21:13:23.687Z,2.38
2023-03-24T21:15:50.396Z,2.58
2023-03-24T21:18:17.196Z,2.50
2023-03-24T21:20:57.746Z,2.17
2023-03-24T21:23:24.811Z,2.28
2023-03-24T21:25:52.071Z,3.08
2023-03-24T21:28:18.742Z,2.30
2023-03-24T21:30:46.170Z,2.40
2023-03-24T21:33:14.615Z,2.58
2023-03-24T21:35:41.586Z,2.63
2023-03-24T21:38:09.583Z,2.72
2023-03-24T21:40:36.256Z,3.50
2023-03-24T21:43:05.631Z,2.92
2023-03-24T21:45:33.216Z,2.80
2023-03-24T21:48:00.073Z,3.28
2023-03-24T21:50:26.718Z,3.28
2023-03-24T21:52:54.774Z,3.33
2023-03-24T21:55:22.377Z,3.30
2023-03-24T21:57:50.490Z,3.45
2023-03-24T22:00:19.633Z,3.13
2023-03-24T22:02:49.683Z,3.53
2023-03-24T22:05:18.973Z,3.37
2023-03-24T22:07:46.927Z,3.50
2023-03-24T22:10:16.259Z,4.65
2023-03-24T22:12:43.948Z,4.30
2023-03-24T22:15:11.836Z,3.53
2023-03-24T22:17:38.790Z,3.65
2023-03-24T22:20:06.384Z,4.25
2023-03-24T22:22:33.689Z,3.65
2023-03-24T22:25:00.224Z,4.22
2023-03-24T22:27:26.730Z,4.15
2023-03-24T22:29:53.288Z,4.07
2023-03-24T22:32:19.873Z,4.03
2023-03-24T22:34:46.460Z,4.03
2023-03-24T22:37:12.999Z,4.57
2023-03-24T22:39:39.500Z,3.70
2023-03-24T22:42:06.004Z,4.82
2023-03-24T22:44:33.573Z,5.10
2023-03-24T22:47:02.243Z,4.57
2023-03-24T22:49:29.652Z,4.75
2023-03-24T22:51:56.246Z,4.07
2023-03-24T22:54:23.466Z,3.90
2023-03-24T22:56:50.308Z,4.00
2023-03-24T22:59:16.920Z,4.40
2023-03-24T23:01:43.478Z,3.58
2023-03-24T23:04:10.114Z,3.95
2023-03-24T23:06:36.947Z,3.22
2023-03-24T23:09:04.709Z,3.45
2023-03-24T23:11:31.964Z,2.95
2023-03-24T23:14:04.542Z,2.90
2023-03-24T23:16:33.185Z,3.15
2023-03-24T23:19:00.485Z,2.65
2023-03-24T23:21:27.616Z,3.08
2023-03-24T23:23:54.250Z,2.90
2023-03-24T23:26:25.214Z,3.88
2023-03-24T23:28:53.545Z,2.60
2023-03-24T23:31:24.774Z,2.90
2023-03-24T23:33:53.954Z,2.30
2023-03-24T23:36:20.522Z,3.55
2023-03-24T23:38:50.539Z,2.90
2023-03-24T23:41:17.868Z,2.58
2023-03-24T23:43:48.201Z,2.60
2023-03-24T23:46:14.824Z,2.30
2023-03-24T23:48:41.472Z,2.50
2023-03-24T23:51:08.008Z,2.03
2023-03-24T23:53:35.813Z,2.55
2023-03-24T23:56:07.814Z,1.92
2023-03-24T23:58:36.642Z,2.25
